createdAt,value
2023-04-23T10:01:11.472Z,28.75
2023-04-23T10:03:44.165Z,10.40
2023-04-23T10:06:25.757Z,8.77
2023-04-23T10:08:59.487Z,11.85
2023-04-23T10:11:28.326Z,18.00
2023-04-23T10:13:56.761Z,13.43
2023-04-23T10:16:30.609Z,17.95
2023-04-23T10:19:05.997Z,13.38
2023-04-23T10:21:50.143Z,12.82
2023-04-23T10:24:25.059Z,11.20
2023-04-23T10:26:55.084Z,8.02
2023-04-23T10:29:30.432Z,12.38
2023-04-23T10:32:01.355Z,15.45
2023-04-23T10:34:31.390Z,11.18
2023-04-23T10:37:01.540Z,12.73
2023-04-23T10:39:34.040Z,8.73
2023-04-23T10:42:03.110Z,8.07
2023-04-23T10:44:56.636Z,9.75
2023-04-23T10:47:24.718Z,16.90
2023-04-23T10:49:53.449Z,10.63
2023-04-23T10:52:25.183Z,8.98
2023-04-23T10:57:26.366Z,12.52
2023-04-23T10:59:56.128Z,8.55
2023-04-23T11:02:26.855Z,11.10
2023-04-23T11:04:58.091Z,9.10
2023-04-23T11:07:28.478Z,13.82
2023-04-23T11:09:57.688Z,16.20
2023-04-23T11:12:34.950Z,12.68
2023-04-23T11:15:12.478Z,13.52
2023-04-23T11:18:03.506Z,18.33
2023-04-23T11:20:31.920Z,17.73
2023-04-23T11:22:59.883Z,14.80
2023-04-23T11:25:29.920Z,7.20
2023-04-23T11:27:59.731Z,12.32
2023-04-23T11:30:29.426Z,13.80
2023-04-23T11:32:59.973Z,10.77
2023-04-23T11:35:30.779Z,21.03
2023-04-23T11:37:58.468Z,17.88
2023-04-23T11:40:30.673Z,12.75
2023-04-23T11:42:59.734Z,13.23
2023-04-23T11:45:29.883Z,11.30
2023-04-23T11:47:59.967Z,14.43
2023-04-23T11:50:33.067Z,18.00
2023-04-23T11:53:07.499Z,12.80
2023-04-23T11:55:35.130Z,9.77
2023-04-23T11:58:04.042Z,9.65
2023-04-23T12:00:31.794Z,11.88
2023-04-23T12:03:02.548Z,10.40
2023-04-23T12:05:33.675Z,10.55
2023-04-23T12:08:09.040Z,11.00
2023-04-23T12:10:43.494Z,12.48
2023-04-23T12:13:15.487Z,12.40
2023-04-23T12:15:47.790Z,11.95
2023-04-23T12:18:15.668Z,12.25
2023-04-23T12:20:45.025Z,11.63
2023-04-23T12:23:12.926Z,10.77
2023-04-23T12:25:41.609Z,9.18
2023-04-23T12:28:09.452Z,13.10
2023-04-23T12:30:44.699Z,11.10
2023-04-23T12:33:12.920Z,6.13
2023-04-23T12:35:41.901Z,12.10
2023-04-23T12:38:23.876Z,13.68
2023-04-23T12:43:20.236Z,13.02
2023-04-23T12:45:48.177Z,4.90
2023-04-23T12:48:16.291Z,10.27
2023-04-23T12:50:44.749Z,11.88
2023-04-23T12:53:14.755Z,10.57
2023-04-23T12:55:45.722Z,7.70
2023-04-23T12:58:13.844Z,10.07
2023-04-23T13:00:41.961Z,10.25
2023-04-23T13:03:09.772Z,5.68
2023-04-23T13:05:38.253Z,8.48
2023-04-23T13:08:06.240Z,6.22
2023-04-23T13:10:35.280Z,7.25
2023-04-23T13:13:03.323Z,5.50
2023-04-23T13:15:31.787Z,5.78
2023-04-23T13:17:59.885Z,7.40
2023-04-23T13:20:28.628Z,8.85
2023-04-23T13:22:56.925Z,7.65
2023-04-23T13:25:25.586Z,7.43
2023-04-23T13:27:54.909Z,7.47
2023-04-23T13:30:23.322Z,8.38
2023-04-23T13:32:51.627Z,5.78
2023-04-23T13:35:20.273Z,6.22
2023-04-23T13:37:48.229Z,5.15
2023-04-23T13:40:16.245Z,4.05
2023-04-23T13:42:44.183Z,8.35
2023-04-23T13:45:14.868Z,6.38
2023-04-23T13:47:43.669Z,7.03
2023-04-23T13:50:12.456Z,5.82
2023-04-23T13:52:41.128Z,9.30
2023-04-23T13:55:10.686Z,15.00
2023-04-23T13:57:39.806Z,51.28
2023-04-23T14:00:10.323Z,78.07
2023-04-23T14:02:40.036Z,51.40
2023-04-23T14:05:08.999Z,40.17
2023-04-23T14:07:36.993Z,33.85
2023-04-23T14:10:05.293Z,39.70
2023-04-23T14:12:33.393Z,41.42
2023-04-23T14:15:01.206Z,37.85
2023-04-23T14:17:29.214Z,24.10
2023-04-23T14:19:58.682Z,34.45
2023-04-23T14:22:26.458Z,23.45
2023-04-23T14:24:58.237Z,24.38
2023-04-23T14:27:25.963Z,28.02
2023-04-23T14:29:59.988Z,35.08
2023-04-23T14:32:27.650Z,13.02
2023-04-23T14:34:55.350Z,17.58
2023-04-23T14:37:24.429Z,27.30
2023-04-23T14:39:52.071Z,20.50
2023-04-23T14:42:19.688Z,22.73
2023-04-23T14:44:47.561Z,22.58
2023-04-23T14:47:16.004Z,18.02
2023-04-23T14:49:44.907Z,23.08
2023-04-23T14:52:12.733Z,17.73
2023-04-23T14:54:41.779Z,21.88
2023-04-23T14:57:09.594Z,11.93
2023-04-23T14:59:37.435Z,19.58
2023-04-23T15:02:05.708Z,18.85
2023-04-23T15:04:33.632Z,16.35
2023-04-23T15:07:01.399Z,13.40
2023-04-23T15:09:29.146Z,11.45
2023-04-23T15:11:58.518Z,10.20
2023-04-23T15:14:31.523Z,26.58
2023-04-23T15:16:59.207Z,21.55
2023-04-23T15:19:26.879Z,11.40
2023-04-23T15:21:54.657Z,11.13
2023-04-23T15:24:22.417Z,16.05
2023-04-23T15:26:53.159Z,8.85
2023-04-23T15:29:24.368Z,11.55
2023-04-23T15:31:57.880Z,8.27
2023-04-23T15:34:25.748Z,9.15
2023-04-23T15:36:53.374Z,9.48
2023-04-23T15:39:21.403Z,9.05
2023-04-23T15:41:49.095Z,9.50
2023-04-23T15:44:18.241Z,16.17
2023-04-23T15:46:47.179Z,8.18
2023-04-23T15:49:14.956Z,8.25
2023-04-23T15:51:42.752Z,7.50
2023-04-23T15:54:10.738Z,9.70
2023-04-23T15:56:38.480Z,17.33
2023-04-23T15:59:06.462Z,17.40
2023-04-23T16:01:34.534Z,14.18
2023-04-23T16:06:34.294Z,8.45
2023-04-23T16:09:03.252Z,14.20
2023-04-23T16:11:31.142Z,21.67
2023-04-23T16:13:58.961Z,10.02
2023-04-23T16:16:26.875Z,13.52
2023-04-23T16:18:56.310Z,10.18
2023-04-23T16:21:27.940Z,7.40
2023-04-23T16:23:55.830Z,9.00
2023-04-23T16:26:23.593Z,10.25
2023-04-23T16:29:05.834Z,18.45
2023-04-23T16:31:39.428Z,19.23
2023-04-23T16:34:07.344Z,14.18
2023-04-23T16:36:36.747Z,12.52
2023-04-23T16:39:05.309Z,14.43
2023-04-23T16:41:33.617Z,18.67
2023-04-23T16:44:01.390Z,27.17
2023-04-23T16:46:30.961Z,18.45
2023-04-23T16:48:58.942Z,19.27
2023-04-23T16:51:28.392Z,33.20
2023-04-23T16:53:57.672Z,19.48
2023-04-23T16:56:25.953Z,23.25
2023-04-23T16:58:53.836Z,18.70
2023-04-23T17:01:21.590Z,13.68
2023-04-23T17:03:49.569Z,22.17
2023-04-23T17:06:25.730Z,16.55
2023-04-23T17:08:53.556Z,21.30
2023-04-23T17:11:22.972Z,16.35
2023-04-23T17:13:50.926Z,16.98
2023-04-23T17:16:18.651Z,16.60
2023-04-23T17:18:46.480Z,13.48
2023-04-23T17:21:14.260Z,11.52
2023-04-23T17:23:42.173Z,14.25
2023-04-23T17:26:09.891Z,11.60
2023-04-23T17:28:40.702Z,10.52
2023-04-23T17:31:08.571Z,15.32
2023-04-23T17:33:36.367Z,14.80
2023-04-23T17:36:04.227Z,13.32
2023-04-23T17:38:31.930Z,10.13
2023-04-23T17:41:00.295Z,9.93
2023-04-23T17:43:28.521Z,11.77
2023-04-23T17:45:57.581Z,11.45
2023-04-23T17:48:25.350Z,10.40
2023-04-23T17:50:54.535Z,12.52
2023-04-23T17:53:22.381Z,10.88
2023-04-23T17:55:50.166Z,9.75
2023-04-23T17:58:19.226Z,11.63
2023-04-23T18:00:46.992Z,9.25
2023-04-23T18:03:18.712Z,10.63
2023-04-23T18:08:16.245Z,12.23
2023-04-23T18:10:45.330Z,10.25
2023-04-23T18:13:13.576Z,9.00
2023-04-23T18:15:42.087Z,13.30
2023-04-23T18:18:10.083Z,43.85
2023-04-23T18:20:40.149Z,48.33
2023-04-23T18:23:07.983Z,52.38
2023-04-23T18:25:36.000Z,53.85
2023-04-23T18:28:03.781Z,50.53
2023-04-23T18:30:31.903Z,61.10
2023-04-23T18:33:03.827Z,53.10
2023-04-23T18:35:31.564Z,51.97
2023-04-23T18:38:06.912Z,54.05
2023-04-23T18:40:34.754Z,51.42
2023-04-23T18:43:02.779Z,46.50
2023-04-23T18:45:30.455Z,46.10
2023-04-23T18:48:03.674Z,45.42
2023-04-23T18:50:37.920Z,49.65
2023-04-23T18:53:07.307Z,46.50
2023-04-23T18:55:35.006Z,47.90
2023-04-23T18:58:02.786Z,44.47
2023-04-23T19:00:30.716Z,38.88
2023-04-23T19:02:58.913Z,37.35
2023-04-23T19:05:26.835Z,36.30
2023-04-23T19:07:54.579Z,33.47
2023-04-23T19:10:23.764Z,36.03
2023-04-23T19:12:51.379Z,36.55
2023-04-23T19:15:19.327Z,33.13
2023-04-23T19:17:47.256Z,30.80
2023-04-23T19:20:15.697Z,30.05
2023-04-23T19:22:43.501Z,22.98
2023-04-23T19:25:11.398Z,26.60
2023-04-23T19:27:40.634Z,26.25
2023-04-23T19:30:10.337Z,25.58
2023-04-23T19:32:38.031Z,25.67
2023-04-23T19:35:06.762Z,23.48
2023-04-23T19:37:35.875Z,27.55
2023-04-23T19:40:04.910Z,24.35
2023-04-23T19:42:32.655Z,20.88
2023-04-23T19:45:01.559Z,18.73
2023-04-23T19:47:29.266Z,20.63
2023-04-23T19:49:56.919Z,20.48
2023-04-23T19:52:27.281Z,21.42
2023-04-23T19:54:54.855Z,21.65
2023-04-23T19:57:22.748Z,17.35
2023-04-23T19:59:50.284Z,21.83
2023-04-23T20:02:19.309Z,15.85
2023-04-23T20:04:47.154Z,21.77
2023-04-23T20:07:14.962Z,19.77
2023-04-23T20:09:42.754Z,14.98
2023-04-23T20:12:10.497Z,17.55
2023-04-23T20:14:38.105Z,20.20
2023-04-23T20:17:05.735Z,16.75
2023-04-23T20:19:34.775Z,13.20
2023-04-23T20:22:02.498Z,15.25
2023-04-23T20:24:30.517Z,16.85
2023-04-23T20:26:58.525Z,16.95
2023-04-23T20:29:27.474Z,14.88
2023-04-23T20:31:55.229Z,13.23
2023-04-23T20:34:23.045Z,12.98
2023-04-23T20:36:52.077Z,11.18
2023-04-23T20:39:23.934Z,12.73
2023-04-23T20:44:22.560Z,12.15
2023-04-23T20:46:51.416Z,13.77
2023-04-23T20:49:19.403Z,14.45
2023-04-23T20:51:47.258Z,11.77
2023-04-23T20:54:16.478Z,15.07
2023-04-23T20:56:44.292Z,9.43
2023-04-23T20:59:12.276Z,15.25
2023-04-23T21:01:39.931Z,13.82
2023-04-23T21:04:07.799Z,11.40
2023-04-23T21:06:35.923Z,12.40
2023-04-23T21:09:04.545Z,11.75
2023-04-23T21:11:33.664Z,12.23
2023-04-23T21:14:01.520Z,10.65
2023-04-23T21:16:29.343Z,10.15
2023-04-23T21:18:56.983Z,13.35
2023-04-23T21:21:27.865Z,12.10
2023-04-23T21:23:55.774Z,10.20
2023-04-23T21:26:23.692Z,8.77
2023-04-23T21:28:52.577Z,10.40
2023-04-23T21:31:38.648Z,9.23
2023-04-23T21:34:06.428Z,7.22
2023-04-23T21:36:33.986Z,10.27
2023-04-23T21:39:01.885Z,10.00
2023-04-23T21:41:29.418Z,7.32
2023-04-23T21:43:58.386Z,9.15
2023-04-23T21:46:26.140Z,10.38
2023-04-23T21:48:54.046Z,11.38
2023-04-23T21:51:22.544Z,9.73
2023-04-23T21:53:50.422Z,13.57
2023-04-23T21:56:18.823Z,7.35
2023-04-23T21:58:46.555Z,12.05
2023-04-23T22:01:16.454Z,5.13
2023-04-23T22:03:46.665Z,8.05
2023-04-23T22:06:15.581Z,9.48
2023-04-23T22:08:44.573Z,6.88
2023-04-23T22:11:12.532Z,8.55
2023-04-23T22:13:40.456Z,7.18
2023-04-23T22:16:20.398Z,7.57
2023-04-23T22:18:56.594Z,9.63
2023-04-23T22:21:24.269Z,7.82
2023-04-23T22:23:51.941Z,5.40
2023-04-23T22:26:19.790Z,6.75
2023-04-23T22:28:47.611Z,5.65
2023-04-23T22:31:15.889Z,5.93
2023-04-23T22:33:43.599Z,5.93
2023-04-23T22:36:12.536Z,7.32
2023-04-23T22:38:40.132Z,7.22
2023-04-23T22:41:07.757Z,6.38
2023-04-23T22:43:35.345Z,5.30
2023-04-23T22:46:03.289Z,9.07
2023-04-23T22:48:31.175Z,6.82
2023-04-23T22:50:59.141Z,7.53
2023-04-23T22:53:28.103Z,5.70
2023-04-23T22:55:55.771Z,5.57
2023-04-23T22:58:23.412Z,4.30
2023-04-23T23:00:51.480Z,6.00
2023-04-23T23:03:19.286Z,5.70
2023-04-23T23:05:46.982Z,4.28
2023-04-23T23:08:14.679Z,2.78
2023-04-23T23:10:43.691Z,4.47
2023-04-23T23:13:11.406Z,3.60
2023-04-23T23:15:39.031Z,4.47
2023-04-23T23:18:07.786Z,4.10
2023-04-23T23:20:35.649Z,4.40
2023-04-23T23:23:03.416Z,4.38
2023-04-23T23:25:31.061Z,3.95
2023-04-23T23:27:59.975Z,6.75
2023-04-23T23:30:27.595Z,5.85
2023-04-23T23:32:55.376Z,3.17
2023-04-23T23:35:23.015Z,3.45
2023-04-23T23:37:50.866Z,4.85
2023-04-23T23:40:18.703Z,4.35
2023-04-23T23:42:46.271Z,3.60
2023-04-23T23:45:15.363Z,4.80
2023-04-23T23:47:43.237Z,5.50
2023-04-23T23:50:11.899Z,4.40
2023-04-23T23:52:39.572Z,2.83
2023-04-23T23:55:08.145Z,4.28
2023-04-23T23:57:36.211Z,4.68
